createdAt,value
2023-05-20T00:01:44.897Z,2.3
2023-05-20T00:06:45.662Z,2.2
2023-05-20T00:08:20.862Z,2.6
2023-05-20T00:13:21.589Z,2.2
2023-05-20T00:18:22.274Z,2.1
2023-05-20T00:23:23.069Z,2.0
2023-05-20T00:28:23.729Z,2.5
2023-05-20T00:33:24.395Z,1.8
2023-05-20T00:38:25.119Z,2.2
2023-05-20T00:43:25.848Z,2.0
2023-05-20T00:48:26.497Z,1.9
2023-05-20T00:53:27.276Z,2.2
2023-05-20T00:58:27.890Z,2.0
2023-05-20T01:03:28.636Z,1.9
2023-05-20T01:08:29.274Z,2.1
2023-05-20T01:13:29.908Z,2.0
2023-05-20T01:18:30.728Z,1.8
2023-05-20T01:23:31.563Z,2.4
2023-05-20T01:28:32.154Z,2.1
2023-05-20T01:33:32.898Z,2.3
2023-05-20T01:38:34.122Z,2.5
2023-05-20T01:43:34.529Z,2.5
2023-05-20T01:48:35.154Z,2.1
2023-05-20T01:53:36.073Z,2.1
2023-05-20T01:58:36.715Z,2.1
2023-05-20T02:03:37.475Z,2.1
2023-05-20T02:08:38.253Z,2.5
2023-05-20T02:13:39.003Z,2.0
2023-05-20T02:18:39.850Z,1.9
2023-05-20T02:23:40.604Z,2.2
2023-05-20T02:28:41.306Z,2.2
2023-05-20T02:33:42.027Z,2.2
2023-05-20T02:38:43.187Z,2.6
2023-05-20T02:43:43.501Z,2.5
2023-05-20T02:48:44.304Z,2.4
2023-05-20T02:53:45.021Z,2.3
2023-05-20T02:58:45.778Z,2.3
2023-05-20T03:03:46.503Z,2.3
2023-05-20T03:08:47.268Z,2.1
2023-05-20T03:13:47.964Z,2.5
2023-05-20T03:18:48.761Z,3.2
2023-05-20T03:23:49.503Z,2.2
2023-05-20T03:28:50.105Z,2.3
2023-05-20T03:33:50.849Z,2.7
2023-05-20T03:38:51.713Z,2.7
2023-05-20T03:43:52.324Z,2.1
2023-05-20T03:48:52.982Z,2.3
2023-05-20T03:53:53.748Z,2.3
2023-05-20T03:58:54.533Z,2.7
2023-05-20T04:03:55.302Z,2.3
2023-05-20T04:08:56.133Z,2.6
2023-05-20T04:13:56.762Z,2.7
2023-05-20T04:18:57.585Z,2.2
2023-05-20T04:23:58.351Z,2.5
2023-05-20T04:28:58.981Z,2.8
2023-05-20T04:33:59.801Z,2.7
2023-05-20T04:39:01.476Z,2.4
2023-05-20T04:44:01.251Z,2.3
2023-05-20T04:49:02.090Z,2.7
2023-05-20T04:54:02.866Z,3.0
2023-05-20T04:59:03.525Z,2.6
2023-05-20T05:04:04.196Z,2.3
2023-05-20T05:09:05.002Z,2.9
2023-05-20T05:14:05.754Z,2.4
2023-05-20T05:19:06.556Z,2.0
2023-05-20T05:24:07.282Z,2.4
2023-05-20T05:29:09.209Z,2.2
2023-05-20T05:34:08.759Z,2.5
2023-05-20T05:39:09.592Z,2.1
2023-05-20T05:44:10.086Z,2.2
2023-05-20T05:49:10.878Z,1.8
2023-05-20T05:54:11.632Z,1.8
2023-05-20T05:59:12.206Z,1.8
2023-05-20T06:04:12.968Z,1.8
2023-05-20T06:09:13.758Z,2.1
2023-05-20T06:14:14.502Z,2.3
2023-05-20T06:19:15.178Z,2.0
2023-05-20T06:24:16.089Z,1.8
2023-05-20T06:29:16.631Z,2.1
2023-05-20T06:34:17.383Z,2.1
2023-05-20T06:39:18.192Z,2.1
2023-05-20T06:44:18.937Z,2.0
2023-05-20T06:49:19.666Z,2.3
2023-05-20T06:54:20.461Z,2.3
2023-05-20T06:59:20.987Z,2.2
2023-05-20T07:04:21.872Z,2.0
2023-05-20T07:09:22.549Z,2.2
2023-05-20T07:14:23.168Z,2.3
2023-05-20T07:19:23.974Z,2.4
2023-05-20T07:24:24.772Z,2.5
2023-05-20T07:29:25.432Z,1.9
2023-05-20T07:34:26.173Z,2.2
2023-05-20T07:39:26.826Z,2.1
2023-05-20T07:44:27.533Z,2.3
2023-05-20T07:49:28.158Z,2.2
2023-05-20T07:54:29.043Z,2.1
2023-05-20T07:59:29.645Z,1.9
2023-05-20T08:04:30.404Z,2.2
2023-05-20T08:09:31.062Z,2.1
2023-05-20T08:14:31.754Z,2.2
2023-05-20T08:19:32.530Z,2.1
2023-05-20T08:24:33.245Z,1.9
2023-05-20T08:29:33.953Z,2.3
2023-05-20T08:34:34.661Z,2.3
2023-05-20T08:39:35.515Z,2.3
2023-05-20T08:44:36.060Z,2.1
2023-05-20T08:49:36.850Z,1.9
2023-05-20T08:54:37.670Z,2.0
2023-05-20T08:59:38.388Z,2.4
2023-05-20T09:04:39.090Z,2.2
2023-05-20T09:09:39.926Z,2.1
2023-05-20T09:14:40.596Z,2.0
2023-05-20T09:19:41.336Z,2.4
2023-05-20T09:24:42.137Z,2.1
2023-05-20T09:29:42.863Z,1.8
2023-05-20T09:34:43.596Z,1.9
2023-05-20T09:39:44.415Z,1.5
2023-05-20T09:44:45.042Z,2.0
2023-05-20T09:49:45.824Z,1.9
2023-05-20T09:54:46.734Z,1.7
2023-05-20T10:04:48.172Z,1.7
2023-05-20T10:09:48.970Z,1.7
2023-05-20T10:14:49.684Z,2.2
2023-05-20T10:19:50.477Z,1.6
2023-05-20T10:24:51.258Z,1.7
2023-05-20T10:29:52.173Z,1.6
2023-05-20T10:34:52.825Z,1.6
2023-05-20T10:39:53.687Z,1.6
2023-05-20T10:44:54.379Z,1.3
2023-05-20T10:49:55.064Z,1.5
2023-05-20T10:54:56.026Z,1.7
2023-05-20T10:59:56.685Z,1.7
2023-05-20T11:04:57.512Z,1.7
2023-05-20T11:09:58.292Z,1.6
2023-05-20T11:14:58.956Z,1.5
2023-05-20T11:19:59.784Z,1.9
2023-05-20T11:25:01.271Z,1.4
2023-05-20T11:30:01.306Z,1.4
2023-05-20T11:35:02.001Z,1.7
2023-05-20T11:40:02.953Z,1.6
2023-05-20T11:45:03.670Z,1.5
2023-05-20T11:50:04.429Z,1.7
2023-05-20T11:55:05.206Z,1.5
2023-05-20T12:00:06.016Z,1.5
2023-05-20T12:05:06.840Z,1.2
2023-05-20T12:10:07.622Z,1.4
2023-05-20T12:15:08.367Z,1.5
2023-05-20T12:20:09.107Z,1.3
2023-05-20T12:25:10.063Z,1.2
2023-05-20T12:30:10.899Z,1.4
2023-05-20T12:35:11.605Z,1.3
2023-05-20T12:40:12.503Z,1.5
2023-05-20T12:45:13.198Z,1.5
2023-05-20T12:50:14.069Z,1.6
2023-05-20T12:55:15.007Z,1.5
2023-05-20T13:00:15.662Z,1.6
2023-05-20T13:05:16.505Z,1.6
2023-05-20T13:10:17.473Z,1.7
2023-05-20T13:15:17.983Z,1.8
2023-05-20T13:20:19.957Z,2.1
2023-05-20T13:25:19.711Z,2.0
2023-05-20T13:30:20.496Z,1.6
2023-05-20T13:35:21.135Z,1.5
2023-05-20T13:40:22.147Z,1.9
2023-05-20T13:45:22.758Z,2.0
2023-05-20T13:50:23.580Z,2.0
2023-05-20T13:55:25.093Z,2.2
2023-05-20T14:00:25.155Z,1.6
2023-05-20T14:05:25.983Z,2.2
2023-05-20T14:10:26.775Z,2.0
2023-05-20T14:15:27.547Z,2.0
2023-05-20T14:20:28.308Z,2.3
2023-05-20T14:25:29.095Z,2.8
2023-05-20T14:30:29.873Z,2.3
2023-05-20T14:35:30.607Z,2.4
2023-05-20T14:40:31.468Z,2.7
2023-05-20T14:45:32.033Z,2.4
2023-05-20T14:50:33.091Z,2.6
2023-05-20T14:55:33.732Z,2.5
2023-05-20T15:00:34.641Z,3.0
2023-05-20T15:05:35.153Z,3.1
2023-05-20T15:10:36.189Z,3.0
2023-05-20T15:15:36.704Z,3.1
2023-05-20T15:20:37.440Z,3.1
2023-05-20T15:25:38.273Z,2.9
2023-05-20T15:30:38.947Z,2.9
2023-05-20T15:35:39.699Z,2.7
2023-05-20T15:40:40.619Z,3.0
2023-05-20T15:45:41.217Z,2.8
2023-05-20T15:50:41.954Z,3.3
2023-05-20T15:55:43.024Z,3.0
2023-05-20T16:00:43.529Z,2.9
2023-05-20T16:05:44.298Z,2.6
2023-05-20T16:10:45.094Z,2.7
2023-05-20T16:15:45.831Z,2.4
2023-05-20T16:20:46.554Z,3.0
2023-05-20T16:25:47.411Z,3.2
2023-05-20T16:30:48.048Z,2.7
2023-05-20T16:35:48.821Z,2.8
2023-05-20T16:40:49.664Z,2.7
2023-05-20T16:45:50.324Z,3.0
2023-05-20T16:50:50.964Z,3.2
2023-05-20T16:55:51.923Z,3.2
2023-05-20T17:00:52.533Z,2.8
2023-05-20T17:05:53.346Z,2.7
2023-05-20T17:10:54.427Z,2.9
2023-05-20T17:15:54.837Z,2.7
2023-05-20T17:20:55.536Z,3.0
2023-05-20T17:25:56.336Z,2.6
2023-05-20T17:30:56.948Z,2.8
2023-05-20T17:35:57.765Z,2.6
2023-05-20T17:40:58.575Z,2.6
2023-05-20T17:45:59.208Z,2.1
2023-05-20T17:50:59.924Z,2.3
2023-05-20T17:56:01.479Z,1.9
2023-05-20T18:01:01.288Z,2.0
2023-05-20T18:06:02.030Z,2.1
2023-05-20T18:11:02.978Z,2.5
2023-05-20T18:16:03.694Z,2.0
2023-05-20T18:21:04.458Z,2.0
2023-05-20T18:26:05.315Z,2.0
2023-05-20T18:31:05.916Z,2.0
2023-05-20T18:36:06.654Z,1.6
2023-05-20T18:41:07.463Z,1.8
2023-05-20T18:46:10.556Z,2.1
2023-05-20T18:51:08.812Z,1.9
2023-05-20T18:56:10.472Z,2.6
2023-05-20T19:01:10.242Z,1.8
2023-05-20T19:06:10.922Z,1.9
2023-05-20T19:11:11.694Z,1.8
2023-05-20T19:16:12.444Z,1.9
2023-05-20T19:21:13.026Z,1.9
2023-05-20T19:26:13.828Z,1.5
2023-05-20T19:31:14.534Z,1.6
2023-05-20T19:36:15.256Z,1.8
2023-05-20T19:41:16.256Z,1.4
2023-05-20T19:46:16.707Z,1.5
2023-05-20T19:51:17.405Z,1.4
2023-05-20T19:56:18.089Z,1.3
2023-05-20T20:01:18.774Z,1.8
2023-05-20T20:06:19.488Z,1.4
2023-05-20T20:11:20.191Z,1.3
2023-05-20T20:16:20.984Z,1.4
2023-05-20T20:21:21.606Z,1.1
2023-05-20T20:26:22.414Z,1.1
2023-05-20T20:31:22.956Z,1.2
2023-05-20T20:36:23.723Z,1.2
2023-05-20T20:41:24.571Z,1.3
2023-05-20T20:46:25.169Z,1.4
2023-05-20T20:51:25.926Z,0.8
2023-05-20T20:56:26.688Z,1.0
2023-05-20T21:01:27.293Z,1.9
2023-05-20T21:06:27.935Z,1.2
2023-05-20T21:11:28.785Z,1.6
2023-05-20T21:16:29.479Z,1.6
2023-05-20T21:21:30.108Z,1.6
2023-05-20T21:26:30.917Z,0.9
2023-05-20T21:31:31.539Z,0.7
2023-05-20T21:36:32.128Z,0.5
2023-05-20T21:41:33.365Z,0.6
2023-05-20T21:46:33.764Z,0.6
2023-05-20T21:51:34.269Z,0.6
2023-05-20T21:56:34.963Z,0.4
2023-05-20T22:01:35.738Z,0.4
2023-05-20T22:06:36.403Z,0.4
2023-05-20T22:11:37.070Z,0.5
2023-05-20T22:16:37.820Z,0.4
2023-05-20T22:21:49.050Z,0.7
2023-05-20T22:26:39.187Z,0.5
2023-05-20T22:31:39.907Z,1.0
2023-05-20T22:36:40.594Z,0.4
2023-05-20T22:41:41.616Z,0.5
2023-05-20T22:46:41.917Z,1.0
2023-05-20T22:51:42.703Z,0.9
2023-05-20T22:56:43.436Z,0.9
2023-05-20T23:01:44.059Z,1.1
2023-05-20T23:06:44.765Z,0.6
2023-05-20T23:11:45.456Z,0.8
2023-05-20T23:16:46.057Z,1.0
2023-05-20T23:21:46.714Z,0.9
2023-05-20T23:26:47.554Z,0.4
2023-05-20T23:31:50.098Z,0.7
2023-05-20T23:36:48.746Z,0.3
2023-05-20T23:41:49.513Z,0.3
2023-05-20T23:46:50.018Z,0.4
2023-05-20T23:51:50.747Z,0.5
2023-05-20T23:56:51.483Z,0.4
